sensor_id;sensor_type;location;lat;lon;timestamp;P1;durP1;ratioP1;P2;durP2;ratioP2
3231;SDS011;1628;48.884;9.210;2022-08-21T04:00:24;6.50;;;6.00;;
3231;SDS011;1628;48.884;9.210;2022-08-21T04:02:51;6.33;;;5.80;;
3231;SDS011;1628;48.884;9.210;2022-08-21T04:05:18;6.33;;;5.83;;
3231;SDS011;1628;48.884;9.210;2022-08-21T04:07:53;6.43;;;5.93;;
3231;SDS011;1628;48.884;9.210;2022-08-21T04:10:21;7.37;;;6.83;;
3231;SDS011;1628;48.884;9.210;2022-08-21T04:12:49;7.30;;;6.60;;
3231;SDS011;1628;48.884;9.210;2022-08-21T04:15:17;7.67;;;7.00;;
3231;SDS011;1628;48.884;9.210;2022-08-21T04:17:45;7.03;;;6.43;;
3231;SDS011;1628;48.884;9.210;2022-08-21T04:20:11;6.80;;;6.30;;
3231;SDS011;1628;48.884;9.210;2022-08-21T04:22:38;6.40;;;5.80;;
3231;SDS011;1628;48.884;9.210;2022-08-21T04:25:05;6.93;;;6.10;;
3231;SDS011;1628;48.884;9.210;2022-08-21T04:27:33;8.97;;;6.03;;
3231;SDS011;1628;48.884;9.210;2022-08-21T04:30:00;6.93;;;6.33;;
3231;SDS011;1628;48.884;9.210;2022-08-21T04:32:26;6.90;;;6.37;;
3231;SDS011;1628;48.884;9.210;2022-08-21T04:34:58;9.40;;;6.00;;
3231;SDS011;1628;48.884;9.210;2022-08-21T04:37:26;8.57;;;5.80;;
3231;SDS011;1628;48.884;9.210;2022-08-21T04:39:53;7.27;;;6.50;;
3231;SDS011;1628;48.884;9.210;2022-08-21T04:42:21;6.43;;;6.00;;
3231;SDS011;1628;48.884;9.210;2022-08-21T04:44:48;6.47;;;5.87;;
3231;SDS011;1628;48.884;9.210;2022-08-21T04:47:15;8.63;;;6.03;;
3231;SDS011;1628;48.884;9.210;2022-08-21T04:49:42;6.07;;;5.43;;
3231;SDS011;1628;48.884;9.210;2022-08-21T04:52:10;5.80;;;5.40;;
3231;SDS011;1628;48.884;9.210;2022-08-21T04:54:39;6.73;;;5.83;;
3231;SDS011;1628;48.884;9.210;2022-08-21T04:57:08;6.40;;;5.80;;
3231;SDS011;1628;48.884;9.210;2022-08-21T04:59:36;5.67;;;5.27;;
3231;SDS011;1628;48.884;9.210;2022-08-21T05:02:06;5.70;;;5.20;;
3231;SDS011;1628;48.884;9.210;2022-08-21T05:04:34;5.83;;;5.43;;
3231;SDS011;1628;48.884;9.210;2022-08-21T05:07:04;6.20;;;5.70;;
3231;SDS011;1628;48.884;9.210;2022-08-21T05:09:35;6.27;;;5.87;;
3231;SDS011;1628;48.884;9.210;2022-08-21T05:12:04;6.60;;;6.10;;
3231;SDS011;1628;48.884;9.210;2022-08-21T05:14:31;6.03;;;5.47;;
3231;SDS011;1628;48.884;9.210;2022-08-21T05:16:58;6.40;;;5.70;;
3231;SDS011;1628;48.884;9.210;2022-08-21T05:19:25;6.30;;;5.80;;
3231;SDS011;1628;48.884;9.210;2022-08-21T05:21:52;7.00;;;5.40;;
3231;SDS011;1628;48.884;9.210;2022-08-21T05:24:19;6.60;;;6.00;;
3231;SDS011;1628;48.884;9.210;2022-08-21T05:26:47;6.77;;;6.07;;
3231;SDS011;1628;48.884;9.210;2022-08-21T05:29:15;6.00;;;5.50;;
3231;SDS011;1628;48.884;9.210;2022-08-21T05:31:42;6.07;;;5.67;;
3231;SDS011;1628;48.884;9.210;2022-08-21T05:34:09;6.13;;;5.73;;
3231;SDS011;1628;48.884;9.210;2022-08-21T05:36:35;6.00;;;5.50;;
3231;SDS011;1628;48.884;9.210;2022-08-21T05:39:02;7.60;;;6.97;;
3231;SDS011;1628;48.884;9.210;2022-08-21T05:41:29;5.90;;;5.40;;
3231;SDS011;1628;48.884;9.210;2022-08-21T05:43:57;7.77;;;5.70;;
3231;SDS011;1628;48.884;9.210;2022-08-21T05:46:24;5.47;;;5.10;;
3231;SDS011;1628;48.884;9.210;2022-08-21T05:48:51;5.37;;;4.87;;
3231;SDS011;1628;48.884;9.210;2022-08-21T05:51:17;5.13;;;4.67;;
3231;SDS011;1628;48.884;9.210;2022-08-21T05:53:44;6.37;;;4.70;;
3231;SDS011;1628;48.884;9.210;2022-08-21T05:56:11;5.27;;;4.83;;
3231;SDS011;1628;48.884;9.210;2022-08-21T05:58:39;5.87;;;5.27;;
3231;SDS011;1628;48.884;9.210;2022-08-21T06:01:07;6.83;;;5.20;;
3231;SDS011;1628;48.884;9.210;2022-08-21T06:03:35;6.10;;;4.20;;
3231;SDS011;1628;48.884;9.210;2022-08-21T06:06:03;7.97;;;4.33;;
3231;SDS011;1628;48.884;9.210;2022-08-21T06:08:30;4.70;;;4.30;;
3231;SDS011;1628;48.884;9.210;2022-08-21T06:10:59;4.30;;;3.90;;
3231;SDS011;1628;48.884;9.210;2022-08-21T06:13:27;4.60;;;4.27;;
3231;SDS011;1628;48.884;9.210;2022-08-21T06:16:00;4.13;;;3.83;;
3231;SDS011;1628;48.884;9.210;2022-08-21T06:18:30;7.50;;;4.30;;
3231;SDS011;1628;48.884;9.210;2022-08-21T06:20:57;4.77;;;4.27;;
3231;SDS011;1628;48.884;9.210;2022-08-21T06:23:23;5.10;;;4.27;;
3231;SDS011;1628;48.884;9.210;2022-08-21T06:25:50;6.57;;;4.20;;
3231;SDS011;1628;48.884;9.210;2022-08-21T06:28:17;5.00;;;4.03;;
3231;SDS011;1628;48.884;9.210;2022-08-21T06:30:43;4.13;;;3.83;;
3231;SDS011;1628;48.884;9.210;2022-08-21T06:33:10;4.63;;;3.60;;
3231;SDS011;1628;48.884;9.210;2022-08-21T06:35:38;4.53;;;4.10;;
3231;SDS011;1628;48.884;9.210;2022-08-21T06:38:05;6.33;;;4.43;;
3231;SDS011;1628;48.884;9.210;2022-08-21T06:40:32;4.27;;;3.97;;
3231;SDS011;1628;48.884;9.210;2022-08-21T06:43:04;4.73;;;4.23;;
3231;SDS011;1628;48.884;9.210;2022-08-21T06:45:32;4.33;;;3.90;;
3231;SDS011;1628;48.884;9.210;2022-08-21T06:47:59;4.63;;;4.17;;
3231;SDS011;1628;48.884;9.210;2022-08-21T06:50:26;6.40;;;4.40;;
3231;SDS011;1628;48.884;9.210;2022-08-21T06:52:59;5.80;;;4.80;;
3231;SDS011;1628;48.884;9.210;2022-08-21T06:55:27;4.10;;;3.80;;
3231;SDS011;1628;48.884;9.210;2022-08-21T06:57:54;4.07;;;3.67;;
3231;SDS011;1628;48.884;9.210;2022-08-21T07:00:21;4.50;;;4.10;;
3231;SDS011;1628;48.884;9.210;2022-08-21T07:02:48;4.40;;;4.00;;
3231;SDS011;1628;48.884;9.210;2022-08-21T07:05:14;4.63;;;3.77;;
3231;SDS011;1628;48.884;9.210;2022-08-21T07:07:41;4.30;;;4.03;;
3231;SDS011;1628;48.884;9.210;2022-08-21T07:10:10;4.20;;;3.73;;
3231;SDS011;1628;48.884;9.210;2022-08-21T07:12:36;4.23;;;3.70;;
3231;SDS011;1628;48.884;9.210;2022-08-21T07:15:04;3.97;;;3.57;;
3231;SDS011;1628;48.884;9.210;2022-08-21T07:17:31;4.90;;;3.67;;
3231;SDS011;1628;48.884;9.210;2022-08-21T07:19:58;5.23;;;4.83;;
3231;SDS011;1628;48.884;9.210;2022-08-21T07:22:24;6.70;;;3.90;;
3231;SDS011;1628;48.884;9.210;2022-08-21T07:24:52;6.90;;;4.00;;
3231;SDS011;1628;48.884;9.210;2022-08-21T07:27:20;5.50;;;3.90;;
3231;SDS011;1628;48.884;9.210;2022-08-21T07:29:47;6.60;;;5.30;;
3231;SDS011;1628;48.884;9.210;2022-08-21T07:32:14;4.87;;;3.47;;
3231;SDS011;1628;48.884;9.210;2022-08-21T07:34:41;6.13;;;3.77;;
3231;SDS011;1628;48.884;9.210;2022-08-21T07:37:08;7.23;;;4.87;;
3231;SDS011;1628;48.884;9.210;2022-08-21T07:39:35;7.27;;;4.33;;
3231;SDS011;1628;48.884;9.210;2022-08-21T07:42:02;8.63;;;4.87;;
3231;SDS011;1628;48.884;9.210;2022-08-21T07:44:30;6.03;;;4.80;;
3231;SDS011;1628;48.884;9.210;2022-08-21T07:46:59;4.60;;;4.10;;
3231;SDS011;1628;48.884;9.210;2022-08-21T07:49:26;4.33;;;4.00;;
3231;SDS011;1628;48.884;9.210;2022-08-21T07:51:53;6.67;;;4.80;;
3231;SDS011;1628;48.884;9.210;2022-08-21T07:54:19;4.77;;;4.23;;
3231;SDS011;1628;48.884;9.210;2022-08-21T07:56:46;6.40;;;4.53;;
3231;SDS011;1628;48.884;9.210;2022-08-21T07:59:13;5.50;;;4.20;;
3231;SDS011;1628;48.884;9.210;2022-08-21T08:01:41;8.50;;;4.50;;
3231;SDS011;1628;48.884;9.210;2022-08-21T08:04:07;6.23;;;4.13;;
3231;SDS011;1628;48.884;9.210;2022-08-21T08:06:34;4.60;;;4.20;;
3231;SDS011;1628;48.884;9.210;2022-08-21T08:09:01;5.10;;;4.67;;
3231;SDS011;1628;48.884;9.210;2022-08-21T08:11:28;5.03;;;4.03;;
3231;SDS011;1628;48.884;9.210;2022-08-21T08:13:55;6.33;;;4.70;;
3231;SDS011;1628;48.884;9.210;2022-08-21T08:16:25;5.30;;;3.70;;
3231;SDS011;1628;48.884;9.210;2022-08-21T08:18:53;6.80;;;4.40;;
3231;SDS011;1628;48.884;9.210;2022-08-21T08:21:20;5.03;;;4.07;;
3231;SDS011;1628;48.884;9.210;2022-08-21T08:23:47;4.93;;;4.43;;
3231;SDS011;1628;48.884;9.210;2022-08-21T08:26:14;5.60;;;4.40;;
3231;SDS011;1628;48.884;9.210;2022-08-21T08:28:41;4.67;;;4.13;;
3231;SDS011;1628;48.884;9.210;2022-08-21T08:31:08;6.00;;;4.83;;
3231;SDS011;1628;48.884;9.210;2022-08-21T08:33:35;4.20;;;3.80;;
3231;SDS011;1628;48.884;9.210;2022-08-21T08:36:04;7.23;;;4.73;;
3231;SDS011;1628;48.884;9.210;2022-08-21T08:38:31;5.20;;;4.70;;
3231;SDS011;1628;48.884;9.210;2022-08-21T08:41:00;5.00;;;4.50;;
3231;SDS011;1628;48.884;9.210;2022-08-21T08:43:29;8.70;;;4.50;;
3231;SDS011;1628;48.884;9.210;2022-08-21T08:45:58;5.47;;;4.17;;
3231;SDS011;1628;48.884;9.210;2022-08-21T08:48:46;5.90;;;5.00;;
3231;SDS011;1628;48.884;9.210;2022-08-21T08:51:19;4.97;;;4.53;;
3231;SDS011;1628;48.884;9.210;2022-08-21T08:53:50;5.87;;;5.27;;
3231;SDS011;1628;48.884;9.210;2022-08-21T08:56:21;5.77;;;4.73;;
3231;SDS011;1628;48.884;9.210;2022-08-21T08:58:53;5.17;;;4.17;;
3231;SDS011;1628;48.884;9.210;2022-08-21T09:01:23;5.10;;;4.40;;
3231;SDS011;1628;48.884;9.210;2022-08-21T09:03:50;5.57;;;4.13;;
3231;SDS011;1628;48.884;9.210;2022-08-21T09:09:22;9.83;;;4.67;;
3231;SDS011;1628;48.884;9.210;2022-08-21T09:11:58;5.27;;;4.30;;
3231;SDS011;1628;48.884;9.210;2022-08-21T09:14:31;6.20;;;3.97;;
3231;SDS011;1628;48.884;9.210;2022-08-21T09:17:11;5.67;;;4.60;;
3231;SDS011;1628;48.884;9.210;2022-08-21T09:19:51;6.73;;;5.00;;
3231;SDS011;1628;48.884;9.210;2022-08-21T09:22:28;5.27;;;4.30;;
3231;SDS011;1628;48.884;9.210;2022-08-21T09:25:02;6.97;;;4.30;;
3231;SDS011;1628;48.884;9.210;2022-08-21T09:27:35;5.03;;;4.70;;
3231;SDS011;1628;48.884;9.210;2022-08-21T09:30:02;4.30;;;4.00;;
3231;SDS011;1628;48.884;9.210;2022-08-21T09:32:31;5.67;;;4.50;;
3231;SDS011;1628;48.884;9.210;2022-08-21T09:35:01;8.40;;;3.77;;
3231;SDS011;1628;48.884;9.210;2022-08-21T09:37:35;4.20;;;3.80;;
3231;SDS011;1628;48.884;9.210;2022-08-21T09:40:19;4.93;;;4.43;;
3231;SDS011;1628;48.884;9.210;2022-08-21T09:42:56;4.33;;;3.90;;
3231;SDS011;1628;48.884;9.210;2022-08-21T09:45:27;4.87;;;4.50;;
3231;SDS011;1628;48.884;9.210;2022-08-21T09:47:54;6.17;;;4.53;;
3231;SDS011;1628;48.884;9.210;2022-08-21T09:50:22;4.97;;;4.00;;
3231;SDS011;1628;48.884;9.210;2022-08-21T09:52:52;6.00;;;3.87;;
3231;SDS011;1628;48.884;9.210;2022-08-21T09:55:24;4.50;;;3.97;;
3231;SDS011;1628;48.884;9.210;2022-08-21T09:58:14;4.77;;;3.57;;
3231;SDS011;1628;48.884;9.210;2022-08-21T10:00:43;5.17;;;4.00;;
3231;SDS011;1628;48.884;9.210;2022-08-21T10:03:11;8.13;;;3.97;;
3231;SDS011;1628;48.884;9.210;2022-08-21T10:05:40;4.83;;;4.20;;
3231;SDS011;1628;48.884;9.210;2022-08-21T10:08:18;6.60;;;4.13;;
3231;SDS011;1628;48.884;9.210;2022-08-21T10:10:49;4.20;;;3.77;;
3231;SDS011;1628;48.884;9.210;2022-08-21T10:13:20;5.13;;;3.60;;
3231;SDS011;1628;48.884;9.210;2022-08-21T10:15:54;7.53;;;4.00;;
3231;SDS011;1628;48.884;9.210;2022-08-21T10:18:30;6.63;;;4.30;;
3231;SDS011;1628;48.884;9.210;2022-08-21T10:21:04;6.20;;;4.50;;
3231;SDS011;1628;48.884;9.210;2022-08-21T10:23:43;4.70;;;4.10;;
3231;SDS011;1628;48.884;9.210;2022-08-21T10:26:20;6.63;;;4.30;;
3231;SDS011;1628;48.884;9.210;2022-08-21T10:28:56;4.90;;;3.80;;
3231;SDS011;1628;48.884;9.210;2022-08-21T10:31:32;9.03;;;5.80;;
3231;SDS011;1628;48.884;9.210;2022-08-21T10:34:11;6.30;;;4.23;;
3231;SDS011;1628;48.884;9.210;2022-08-21T10:36:50;4.80;;;4.40;;
3231;SDS011;1628;48.884;9.210;2022-08-21T10:39:29;5.67;;;4.33;;
3231;SDS011;1628;48.884;9.210;2022-08-21T10:42:05;17.67;;;6.10;;
3231;SDS011;1628;48.884;9.210;2022-08-21T10:44:49;5.43;;;3.83;;
3231;SDS011;1628;48.884;9.210;2022-08-21T10:47:28;7.63;;;5.30;;
3231;SDS011;1628;48.884;9.210;2022-08-21T10:50:00;4.90;;;3.90;;
3231;SDS011;1628;48.884;9.210;2022-08-21T10:52:36;4.60;;;4.20;;
3231;SDS011;1628;48.884;9.210;2022-08-21T10:55:17;4.03;;;3.63;;
3231;SDS011;1628;48.884;9.210;2022-08-21T10:57:47;5.50;;;4.20;;
3231;SDS011;1628;48.884;9.210;2022-08-21T11:00:18;4.77;;;3.67;;
3231;SDS011;1628;48.884;9.210;2022-08-21T11:02:48;4.13;;;3.20;;
3231;SDS011;1628;48.884;9.210;2022-08-21T11:05:19;4.37;;;3.97;;
3231;SDS011;1628;48.884;9.210;2022-08-21T11:07:51;5.27;;;4.13;;
3231;SDS011;1628;48.884;9.210;2022-08-21T11:10:23;8.53;;;3.77;;
3231;SDS011;1628;48.884;9.210;2022-08-21T11:12:52;4.67;;;3.60;;
3231;SDS011;1628;48.884;9.210;2022-08-21T11:15:30;9.60;;;4.50;;
3231;SDS011;1628;48.884;9.210;2022-08-21T11:18:15;7.10;;;4.27;;
3231;SDS011;1628;48.884;9.210;2022-08-21T11:20:49;3.47;;;3.13;;
3231;SDS011;1628;48.884;9.210;2022-08-21T11:23:23;5.33;;;3.27;;
3231;SDS011;1628;48.884;9.210;2022-08-21T11:25:57;5.90;;;3.80;;
3231;SDS011;1628;48.884;9.210;2022-08-21T11:28:30;6.57;;;3.73;;
3231;SDS011;1628;48.884;9.210;2022-08-21T11:31:02;5.47;;;3.70;;
3231;SDS011;1628;48.884;9.210;2022-08-21T11:33:44;7.57;;;3.67;;
3231;SDS011;1628;48.884;9.210;2022-08-21T11:36:33;6.40;;;3.53;;
3231;SDS011;1628;48.884;9.210;2022-08-21T11:39:06;4.23;;;3.60;;
3231;SDS011;1628;48.884;9.210;2022-08-21T11:41:46;3.93;;;3.40;;
3231;SDS011;1628;48.884;9.210;2022-08-21T11:44:23;5.60;;;3.63;;
3231;SDS011;1628;48.884;9.210;2022-08-21T11:47:01;4.07;;;3.57;;
3231;SDS011;1628;48.884;9.210;2022-08-21T11:49:42;3.73;;;3.43;;
3231;SDS011;1628;48.884;9.210;2022-08-21T11:52:19;5.50;;;3.83;;
3231;SDS011;1628;48.884;9.210;2022-08-21T11:54:52;5.57;;;3.90;;
3231;SDS011;1628;48.884;9.210;2022-08-21T11:57:25;5.53;;;3.90;;
3231;SDS011;1628;48.884;9.210;2022-08-21T11:59:59;5.07;;;4.67;;
3231;SDS011;1628;48.884;9.210;2022-08-21T12:02:33;5.60;;;4.47;;
3231;SDS011;1628;48.884;9.210;2022-08-21T12:05:03;4.33;;;3.77;;
3231;SDS011;1628;48.884;9.210;2022-08-21T12:07:34;3.80;;;3.50;;
3231;SDS011;1628;48.884;9.210;2022-08-21T12:10:03;4.50;;;3.90;;
3231;SDS011;1628;48.884;9.210;2022-08-21T12:12:33;4.07;;;3.77;;
3231;SDS011;1628;48.884;9.210;2022-08-21T12:17:52;6.73;;;4.07;;
3231;SDS011;1628;48.884;9.210;2022-08-21T12:20:25;4.93;;;3.70;;
3231;SDS011;1628;48.884;9.210;2022-08-21T12:23:05;7.40;;;4.10;;
3231;SDS011;1628;48.884;9.210;2022-08-21T12:25:43;5.37;;;3.80;;
3231;SDS011;1628;48.884;9.210;2022-08-21T12:28:14;4.03;;;3.70;;
3231;SDS011;1628;48.884;9.210;2022-08-21T12:30:47;5.20;;;3.80;;
3231;SDS011;1628;48.884;9.210;2022-08-21T12:33:21;4.27;;;3.50;;
3231;SDS011;1628;48.884;9.210;2022-08-21T12:35:50;3.83;;;3.10;;
3231;SDS011;1628;48.884;9.210;2022-08-21T12:38:20;3.80;;;3.13;;
3231;SDS011;1628;48.884;9.210;2022-08-21T12:40:50;4.23;;;3.03;;
3231;SDS011;1628;48.884;9.210;2022-08-21T12:43:24;4.33;;;2.67;;
3231;SDS011;1628;48.884;9.210;2022-08-21T12:45:55;3.03;;;2.60;;
3231;SDS011;1628;48.884;9.210;2022-08-21T12:48:25;3.47;;;2.50;;
3231;SDS011;1628;48.884;9.210;2022-08-21T12:50:55;6.20;;;2.80;;
3231;SDS011;1628;48.884;9.210;2022-08-21T12:53:26;5.43;;;3.53;;
3231;SDS011;1628;48.884;9.210;2022-08-21T12:56:01;4.67;;;4.37;;
3231;SDS011;1628;48.884;9.210;2022-08-21T12:58:30;4.40;;;3.37;;
3231;SDS011;1628;48.884;9.210;2022-08-21T13:00:59;4.93;;;3.50;;
3231;SDS011;1628;48.884;9.210;2022-08-21T13:03:30;4.90;;;4.30;;
3231;SDS011;1628;48.884;9.210;2022-08-21T13:06:01;5.83;;;3.10;;
3231;SDS011;1628;48.884;9.210;2022-08-21T13:08:30;6.77;;;3.33;;
3231;SDS011;1628;48.884;9.210;2022-08-21T13:11:02;3.50;;;3.20;;
3231;SDS011;1628;48.884;9.210;2022-08-21T13:13:33;4.80;;;3.70;;
3231;SDS011;1628;48.884;9.210;2022-08-21T13:16:02;3.93;;;3.53;;
3231;SDS011;1628;48.884;9.210;2022-08-21T13:18:31;4.93;;;3.10;;
3231;SDS011;1628;48.884;9.210;2022-08-21T13:21:03;3.73;;;3.40;;
3231;SDS011;1628;48.884;9.210;2022-08-21T13:23:32;6.60;;;3.67;;
3231;SDS011;1628;48.884;9.210;2022-08-21T13:25:59;6.20;;;3.80;;
3231;SDS011;1628;48.884;9.210;2022-08-21T13:28:33;5.17;;;3.53;;
3231;SDS011;1628;48.884;9.210;2022-08-21T13:31:01;5.90;;;4.17;;
3231;SDS011;1628;48.884;9.210;2022-08-21T13:33:33;4.93;;;3.40;;
3231;SDS011;1628;48.884;9.210;2022-08-21T13:36:01;3.20;;;2.97;;
3231;SDS011;1628;48.884;9.210;2022-08-21T13:38:31;4.23;;;3.10;;
3231;SDS011;1628;48.884;9.210;2022-08-21T13:41:01;5.57;;;3.27;;
3231;SDS011;1628;48.884;9.210;2022-08-21T13:43:31;4.30;;;3.27;;
3231;SDS011;1628;48.884;9.210;2022-08-21T13:46:01;4.57;;;3.20;;
3231;SDS011;1628;48.884;9.210;2022-08-21T13:48:33;3.13;;;2.90;;
3231;SDS011;1628;48.884;9.210;2022-08-21T13:51:01;4.10;;;3.13;;
3231;SDS011;1628;48.884;9.210;2022-08-21T13:53:29;3.90;;;3.30;;
3231;SDS011;1628;48.884;9.210;2022-08-21T13:55:59;3.97;;;3.53;;
3231;SDS011;1628;48.884;9.210;2022-08-21T13:58:27;3.10;;;2.70;;
3231;SDS011;1628;48.884;9.210;2022-08-21T14:00:56;5.40;;;3.70;;
3231;SDS011;1628;48.884;9.210;2022-08-21T14:03:27;7.03;;;3.37;;
3231;SDS011;1628;48.884;9.210;2022-08-21T14:05:58;3.90;;;3.03;;
3231;SDS011;1628;48.884;9.210;2022-08-21T14:08:26;3.77;;;2.80;;
3231;SDS011;1628;48.884;9.210;2022-08-21T14:10:57;9.10;;;5.73;;
3231;SDS011;1628;48.884;9.210;2022-08-21T14:13:27;3.37;;;3.07;;
3231;SDS011;1628;48.884;9.210;2022-08-21T14:16:01;3.70;;;3.03;;
3231;SDS011;1628;48.884;9.210;2022-08-21T14:18:29;3.33;;;2.87;;
3231;SDS011;1628;48.884;9.210;2022-08-21T14:21:05;4.57;;;2.87;;
3231;SDS011;1628;48.884;9.210;2022-08-21T14:23:34;4.73;;;3.47;;
3231;SDS011;1628;48.884;9.210;2022-08-21T14:26:02;5.23;;;3.10;;
3231;SDS011;1628;48.884;9.210;2022-08-21T14:28:32;3.20;;;3.00;;
3231;SDS011;1628;48.884;9.210;2022-08-21T14:31:11;5.50;;;3.03;;
3231;SDS011;1628;48.884;9.210;2022-08-21T14:33:40;4.80;;;3.37;;
3231;SDS011;1628;48.884;9.210;2022-08-21T14:36:07;3.97;;;3.00;;
3231;SDS011;1628;48.884;9.210;2022-08-21T14:38:35;3.50;;;3.00;;
3231;SDS011;1628;48.884;9.210;2022-08-21T14:41:15;3.43;;;3.03;;
3231;SDS011;1628;48.884;9.210;2022-08-21T14:43:44;3.70;;;3.17;;
3231;SDS011;1628;48.884;9.210;2022-08-21T14:46:14;5.40;;;2.90;;
3231;SDS011;1628;48.884;9.210;2022-08-21T14:48:46;5.17;;;3.10;;
3231;SDS011;1628;48.884;9.210;2022-08-21T14:51:14;3.47;;;2.77;;
3231;SDS011;1628;48.884;9.210;2022-08-21T14:53:40;4.10;;;3.50;;
3231;SDS011;1628;48.884;9.210;2022-08-21T14:56:07;3.27;;;3.00;;
3231;SDS011;1628;48.884;9.210;2022-08-21T14:58:36;4.50;;;3.50;;
3231;SDS011;1628;48.884;9.210;2022-08-21T15:01:05;6.27;;;3.90;;
3231;SDS011;1628;48.884;9.210;2022-08-21T15:03:34;4.17;;;3.20;;
3231;SDS011;1628;48.884;9.210;2022-08-21T15:06:02;3.50;;;3.20;;
3231;SDS011;1628;48.884;9.210;2022-08-21T15:08:30;4.93;;;3.47;;
3231;SDS011;1628;48.884;9.210;2022-08-21T15:10:58;2.90;;;2.70;;
3231;SDS011;1628;48.884;9.210;2022-08-21T15:13:25;3.40;;;3.10;;
3231;SDS011;1628;48.884;9.210;2022-08-21T15:15:52;3.87;;;3.13;;
3231;SDS011;1628;48.884;9.210;2022-08-21T15:18:21;5.00;;;3.10;;
3231;SDS011;1628;48.884;9.210;2022-08-21T15:20:50;7.33;;;3.27;;
3231;SDS011;1628;48.884;9.210;2022-08-21T15:23:17;3.50;;;3.10;;
3231;SDS011;1628;48.884;9.210;2022-08-21T15:25:45;4.07;;;3.33;;
3231;SDS011;1628;48.884;9.210;2022-08-21T15:28:14;3.60;;;3.30;;
3231;SDS011;1628;48.884;9.210;2022-08-21T15:30:42;2.80;;;2.60;;
3231;SDS011;1628;48.884;9.210;2022-08-21T15:33:10;3.00;;;2.70;;
3231;SDS011;1628;48.884;9.210;2022-08-21T15:35:37;3.70;;;2.93;;
3231;SDS011;1628;48.884;9.210;2022-08-21T15:38:06;3.60;;;3.30;;
3231;SDS011;1628;48.884;9.210;2022-08-21T15:40:33;5.40;;;3.33;;
3231;SDS011;1628;48.884;9.210;2022-08-21T15:43:01;3.03;;;2.53;;
3231;SDS011;1628;48.884;9.210;2022-08-21T15:45:30;7.40;;;2.87;;
3231;SDS011;1628;48.884;9.210;2022-08-21T15:47:56;3.60;;;3.27;;
3231;SDS011;1628;48.884;9.210;2022-08-21T15:50:24;3.50;;;2.60;;
3231;SDS011;1628;48.884;9.210;2022-08-21T15:52:51;4.07;;;2.93;;
3231;SDS011;1628;48.884;9.210;2022-08-21T15:55:19;3.23;;;2.80;;
3231;SDS011;1628;48.884;9.210;2022-08-21T15:57:46;4.10;;;3.10;;
3231;SDS011;1628;48.884;9.210;2022-08-21T16:00:16;3.50;;;3.20;;
3231;SDS011;1628;48.884;9.210;2022-08-21T16:02:46;5.90;;;3.47;;
3231;SDS011;1628;48.884;9.210;2022-08-21T16:05:14;2.90;;;2.70;;
3231;SDS011;1628;48.884;9.210;2022-08-21T16:07:43;3.63;;;3.33;;
3231;SDS011;1628;48.884;9.210;2022-08-21T16:10:11;2.83;;;2.63;;
3231;SDS011;1628;48.884;9.210;2022-08-21T16:12:40;3.70;;;2.93;;
3231;SDS011;1628;48.884;9.210;2022-08-21T16:15:11;3.50;;;3.20;;
3231;SDS011;1628;48.884;9.210;2022-08-21T16:17:41;4.83;;;3.30;;
3231;SDS011;1628;48.884;9.210;2022-08-21T16:20:13;3.73;;;3.43;;
3231;SDS011;1628;48.884;9.210;2022-08-21T16:22:44;4.70;;;3.60;;
3231;SDS011;1628;48.884;9.210;2022-08-21T16:25:15;3.37;;;3.10;;
3231;SDS011;1628;48.884;9.210;2022-08-21T16:27:44;6.00;;;3.33;;
3231;SDS011;1628;48.884;9.210;2022-08-21T16:30:14;3.60;;;3.30;;
3231;SDS011;1628;48.884;9.210;2022-08-21T16:32:43;12.27;;;4.60;;
3231;SDS011;1628;48.884;9.210;2022-08-21T16:35:11;6.47;;;3.40;;
3231;SDS011;1628;48.884;9.210;2022-08-21T16:37:39;9.03;;;3.50;;
3231;SDS011;1628;48.884;9.210;2022-08-21T16:40:07;5.30;;;3.33;;
3231;SDS011;1628;48.884;9.210;2022-08-21T16:42:35;3.40;;;3.10;;
3231;SDS011;1628;48.884;9.210;2022-08-21T16:45:06;6.57;;;3.30;;
3231;SDS011;1628;48.884;9.210;2022-08-21T16:47:33;4.00;;;3.70;;
3231;SDS011;1628;48.884;9.210;2022-08-21T16:50:00;3.53;;;3.23;;
3231;SDS011;1628;48.884;9.210;2022-08-21T16:52:27;3.90;;;3.40;;
3231;SDS011;1628;48.884;9.210;2022-08-21T16:54:54;5.40;;;4.13;;
3231;SDS011;1628;48.884;9.210;2022-08-21T16:57:21;3.80;;;3.50;;
3231;SDS011;1628;48.884;9.210;2022-08-21T16:59:49;8.13;;;3.27;;
3231;SDS011;1628;48.884;9.210;2022-08-21T17:02:20;6.17;;;4.20;;
3231;SDS011;1628;48.884;9.210;2022-08-21T17:04:53;3.47;;;2.77;;
3231;SDS011;1628;48.884;9.210;2022-08-21T17:07:20;6.50;;;4.17;;
3231;SDS011;1628;48.884;9.210;2022-08-21T17:09:46;4.40;;;3.50;;
3231;SDS011;1628;48.884;9.210;2022-08-21T17:12:14;7.13;;;4.33;;
3231;SDS011;1628;48.884;9.210;2022-08-21T17:14:42;8.17;;;5.73;;
3231;SDS011;1628;48.884;9.210;2022-08-21T17:17:09;21.63;;;12.83;;
3231;SDS011;1628;48.884;9.210;2022-08-21T17:19:38;14.70;;;9.27;;
3231;SDS011;1628;48.884;9.210;2022-08-21T17:22:05;11.10;;;6.03;;
3231;SDS011;1628;48.884;9.210;2022-08-21T17:24:32;7.43;;;5.93;;
3231;SDS011;1628;48.884;9.210;2022-08-21T17:26:59;5.17;;;4.60;;
3231;SDS011;1628;48.884;9.210;2022-08-21T17:29:27;17.67;;;14.43;;
3231;SDS011;1628;48.884;9.210;2022-08-21T17:31:57;10.90;;;8.20;;
3231;SDS011;1628;48.884;9.210;2022-08-21T17:34:25;8.83;;;6.33;;
3231;SDS011;1628;48.884;9.210;2022-08-21T17:36:53;11.40;;;10.30;;
3231;SDS011;1628;48.884;9.210;2022-08-21T17:39:19;6.17;;;5.40;;
3231;SDS011;1628;48.884;9.210;2022-08-21T17:41:46;4.70;;;4.13;;
3231;SDS011;1628;48.884;9.210;2022-08-21T17:44:13;5.47;;;4.17;;
3231;SDS011;1628;48.884;9.210;2022-08-21T17:46:41;12.47;;;9.93;;
3231;SDS011;1628;48.884;9.210;2022-08-21T17:49:08;8.03;;;7.23;;
3231;SDS011;1628;48.884;9.210;2022-08-21T17:51:35;7.07;;;4.70;;
3231;SDS011;1628;48.884;9.210;2022-08-21T17:54:04;6.40;;;5.00;;
3231;SDS011;1628;48.884;9.210;2022-08-21T17:56:31;12.30;;;5.73;;
3231;SDS011;1628;48.884;9.210;2022-08-21T17:59:00;6.73;;;3.70;;
3231;SDS011;1628;48.884;9.210;2022-08-21T18:01:31;5.53;;;3.70;;
3231;SDS011;1628;48.884;9.210;2022-08-21T18:04:00;4.53;;;4.13;;
3231;SDS011;1628;48.884;9.210;2022-08-21T18:06:27;7.83;;;4.30;;
3231;SDS011;1628;48.884;9.210;2022-08-21T18:08:54;4.07;;;3.77;;
3231;SDS011;1628;48.884;9.210;2022-08-21T18:11:23;3.70;;;3.40;;
3231;SDS011;1628;48.884;9.210;2022-08-21T18:13:53;7.03;;;4.10;;
3231;SDS011;1628;48.884;9.210;2022-08-21T18:16:24;5.17;;;3.43;;
3231;SDS011;1628;48.884;9.210;2022-08-21T18:18:52;4.80;;;3.73;;
3231;SDS011;1628;48.884;9.210;2022-08-21T18:21:19;4.10;;;3.70;;
3231;SDS011;1628;48.884;9.210;2022-08-21T18:23:46;6.00;;;3.40;;
3231;SDS011;1628;48.884;9.210;2022-08-21T18:26:14;8.13;;;4.00;;
3231;SDS011;1628;48.884;9.210;2022-08-21T18:28:46;4.43;;;3.50;;
3231;SDS011;1628;48.884;9.210;2022-08-21T18:31:13;4.63;;;3.80;;
3231;SDS011;1628;48.884;9.210;2022-08-21T18:33:39;4.57;;;4.03;;
3231;SDS011;1628;48.884;9.210;2022-08-21T18:36:07;5.43;;;4.10;;
3231;SDS011;1628;48.884;9.210;2022-08-21T18:38:34;4.53;;;3.90;;
3231;SDS011;1628;48.884;9.210;2022-08-21T18:41:00;5.27;;;4.07;;
3231;SDS011;1628;48.884;9.210;2022-08-21T18:43:27;3.97;;;3.70;;
3231;SDS011;1628;48.884;9.210;2022-08-21T18:45:55;4.93;;;3.90;;
3231;SDS011;1628;48.884;9.210;2022-08-21T18:48:22;4.00;;;3.70;;
3231;SDS011;1628;48.884;9.210;2022-08-21T18:50:49;3.90;;;3.50;;
3231;SDS011;1628;48.884;9.210;2022-08-21T18:53:16;4.20;;;3.80;;
3231;SDS011;1628;48.884;9.210;2022-08-21T18:55:44;4.27;;;3.83;;
3231;SDS011;1628;48.884;9.210;2022-08-21T18:58:13;4.40;;;3.50;;
3231;SDS011;1628;48.884;9.210;2022-08-21T19:00:41;4.07;;;3.23;;
3231;SDS011;1628;48.884;9.210;2022-08-21T19:03:12;6.30;;;2.93;;
3231;SDS011;1628;48.884;9.210;2022-08-21T19:05:41;5.17;;;3.50;;
3231;SDS011;1628;48.884;9.210;2022-08-21T19:08:09;4.17;;;3.30;;
3231;SDS011;1628;48.884;9.210;2022-08-21T19:10:37;4.27;;;3.70;;
3231;SDS011;1628;48.884;9.210;2022-08-21T19:13:05;3.90;;;3.60;;
3231;SDS011;1628;48.884;9.210;2022-08-21T19:15:32;7.10;;;3.40;;
3231;SDS011;1628;48.884;9.210;2022-08-21T19:17:59;3.70;;;3.20;;
3231;SDS011;1628;48.884;9.210;2022-08-21T19:20:30;4.33;;;3.70;;
3231;SDS011;1628;48.884;9.210;2022-08-21T19:23:01;4.37;;;3.50;;
3231;SDS011;1628;48.884;9.210;2022-08-21T19:25:28;5.17;;;3.37;;
3231;SDS011;1628;48.884;9.210;2022-08-21T19:27:56;4.00;;;3.70;;
3231;SDS011;1628;48.884;9.210;2022-08-21T19:30:23;6.83;;;4.00;;
3231;SDS011;1628;48.884;9.210;2022-08-21T19:32:52;4.17;;;3.77;;
3231;SDS011;1628;48.884;9.210;2022-08-21T19:35:18;6.60;;;4.17;;